Decoded Metar for KITR (BURLINGTON in CO, USA) (IATA:ITR) | Meteo·Mobile Aviation Weather
aviador You're here:

KITR Decoded Metar

BURLINGTON in CO, USA
Report Time2019-02-22 13:42:00
UTC Time2019-02-22 13:57:55
Flight Rules lifr LIFR
Wind070° at 06 kt
W.Decomp.*RWY 15: 6 kt LCW
W.Rank070° ranks 34
Current wind is below 070° avg. (8.7)
Visibility2414 m
Phenomena:Mist
Clouds:Overcast 002 Hf
Expected CloudBase > 400 ft AGL from Temp-Dew spread
Ceiling200 ft
Temp-2°C (ISA -9)
Dew Point-3°C (93% RH)
AAT-6.5°C
QNH1012 hPa
Density Alt3,258 ft
Elevation4,196 ft
Report Wrong Elevation
Raw Report
KITR 221342Z AUTO 07006KT 1 1/2SM BR OVC002 M02/M03 A2989 RMK AO2
T10221028=

Extra information for KITR:More info

Metar Taf Metar & Taf Last 4 Metars F.Rules Stats Wind Profile Meteogram Temp Stats Airport Information Weather charts Add Link Nearby VenuesMetar ALERT Operation Metar Decoded Social comments

AIRNAV info for KITR